Weather reports worldwide

Advertisment
Großer Arber, Germany (10791): temperature & dewpoint: 13.12.2018 05:00:00 - 19.12.2018 05:00:00 (CET)Großer Arber, Germany (10791): wind speed & gusts: 13.12.2018 05:00:00 - 19.12.2018 05:00:00 (CET)Großer Arber, Germany (10791): wind direction: 13.12.2018 05:00:00 - 19.12.2018 05:00:00 (CET)Großer Arber, Germany (10791): visibility: 13.12.2018 05:00:00 - 19.12.2018 05:00:00 (CET)Großer Arber, Germany (10791): sunshine duration: 13.12.2018 05:00:00 - 19.12.2018 05:00:00 (CET)Großer Arber, Germany (10791): precipitation: 13.12.2018 05:00:00 - 19.12.2018 05:00:00 (CET)
Date & Time tt [°C] td [°C] ff [km/h] ff [kn] fx [km/h] fx [kn] dd vv [km] sd [min] rr [mm]
19.12.2018 05:00:00 -1,0 -10,7 38 20 50 27 SSE 75 0 0,0
19.12.2018 04:00:00 -1,3 -10,5 40 21 49 27 SSE 75 0 0,0
19.12.2018 03:00:00 -1,8 -10,3 41 22 50 27 SE 75 0 0,0
19.12.2018 02:00:00 -1,9 -10,3 39 21 50 27 SSE 75 0 0,0
19.12.2018 01:00:00 -2,4 -9,7 38 21 48 26 SSE 75 0 0,0
19.12.2018 00:00:00 -2,6 -8,9 38 21 49 26 SE 75 0 0,0
18.12.2018 23:00:00 -3,0 -7,8 35 19 48 26 SE 75 0 0,0
18.12.2018 22:00:00 -3,2 -7,1 28 15 34 18 SE 75 0 0,0
18.12.2018 21:00:00 -3,8 -6,6 26 14 33 18 SE 75 0 0,0
18.12.2018 20:00:00 -4,3 -6,3 27 15 35 19 SSE 75 0 0,0
18.12.2018 19:00:00 -4,4 -5,1 29 16 36 19 SE 75 0 0,0
18.12.2018 18:00:00 -4,1 -4,7 22 12 29 15 SE 65 0 0,0
18.12.2018 17:00:00 -3,9 -4,3 21 11 24 13 SE 0,1 0 0,0
18.12.2018 16:00:00 -3,7 -4,5 12 7 16 9 SSE 41 0 0,0
18.12.2018 15:00:00 -3,3 -4,2 8 4 16 9 S 11 0 0,0
18.12.2018 14:00:00 -3,3 -3,9 10 6 24 13 S - 0 0,0
18.12.2018 13:00:00 -3,4 -4,1 17 9 22 12 SW 0,1 0 0,0
18.12.2018 12:00:00 -2,8 -4,5 14 8 22 12 SW 75 26 0,0
18.12.2018 11:00:00 -3,7 -5,2 14 8 26 14 W 74 60 0,0
18.12.2018 10:00:00 -4,0 -5,0 22 12 38 21 W 75 17 0,0
18.12.2018 09:00:00 -4,0 -4,5 22 12 41 22 W 60 0 0,0
18.12.2018 08:00:00 -3,7 -4,0 25 13 41 22 W 0,1 0 0,0
18.12.2018 07:00:00 -4,0 -4,3 29 15 45 24 W 74 0 0,0
18.12.2018 06:00:00 -3,4 -3,4 22 12 41 22 W - 0 0,0
18.12.2018 05:00:00 -3,4 -3,5 30 16 40 22 W - 0 0,0
18.12.2018 04:00:00 -3,6 -3,7 29 15 39 21 W 0,1 0 0,0
18.12.2018 03:00:00 -3,6 -3,8 27 14 41 22 W - 0 0,0
18.12.2018 02:00:00 -3,6 -3,8 31 17 52 28 W - 0 0,0
18.12.2018 01:00:00 -3,7 -3,9 35 19 62 33 W - 0 0,0
18.12.2018 00:00:00 -3,8 -4,1 36 20 53 29 W 0,1 0 0,0
17.12.2018 23:00:00 -3,8 -4,1 31 17 43 23 WNW 0,1 0 0,0
17.12.2018 22:00:00 -3,7 -3,8 26 14 43 23 W 0,1 0 0,3
17.12.2018 21:00:00 -3,5 -3,7 30 16 45 25 W 0,1 0 0,2
17.12.2018 20:00:00 -3,5 -3,8 36 19 46 25 WSW - 0 0,0
17.12.2018 19:00:00 -3,4 -3,8 34 19 47 25 WSW 0,1 0 0,0
17.12.2018 18:00:00 -3,4 -3,6 31 17 47 26 WSW 0,1 0 0,0
17.12.2018 17:00:00 -3,5 -3,8 33 18 49 26 WSW 0,1 0 0,0
17.12.2018 16:00:00 -3,7 -4,0 25 13 39 21 WSW 0,1 0 0,1
17.12.2018 15:00:00 -3,5 -3,8 23 12 40 21 W 0,1 0 0,0
17.12.2018 14:00:00 -3,7 -4,3 26 14 45 24 W 1,3 0 0,0
17.12.2018 13:00:00 -3,8 -4,3 28 15 39 21 W 0,2 0 0,0
17.12.2018 12:00:00 -3,7 -4,3 25 14 35 19 W 0,4 0 0,0
17.12.2018 11:00:00 -3,9 -4,6 21 11 32 17 W 58 0 0,0
17.12.2018 10:00:00 -3,7 -4,5 23 12 37 20 WNW 62 28 0,0
17.12.2018 09:00:00 -3,8 -4,8 23 13 34 19 WNW 75 41 0,0
17.12.2018 08:00:00 -3,9 -4,6 23 12 35 19 WNW 75 0 0,0
17.12.2018 07:00:00 -3,5 -3,5 20 11 27 15 WNW 71 0 0,0
17.12.2018 06:00:00 -3,1 -3,1 22 12 40 22 W 0,2 0 0,0
17.12.2018 05:00:00 -3,1 -3,1 20 11 26 14 W 0,1 0 0,0
17.12.2018 04:00:00 -3,3 -3,3 21 11 30 16 WSW 0,2 0 0,0
17.12.2018 03:00:00 -3,3 -3,3 24 13 34 19 WSW 0,1 0 0,0
17.12.2018 02:00:00 -3,3 -3,3 26 14 39 21 W 0,4 0 0,0
17.12.2018 01:00:00 -3,3 -3,3 30 16 44 24 W 0,1 0 0,0
17.12.2018 00:00:00 -3,8 -3,8 35 19 48 26 W - 0 0,0
16.12.2018 23:00:00 -4,1 -4,1 37 20 53 29 W 0,1 0 0,0
16.12.2018 22:00:00 -4,7 -4,9 35 19 57 31 W - 0 0,0
16.12.2018 21:00:00 -4,6 -4,8 41 22 60 32 W - 0 0,0
16.12.2018 20:00:00 -5,2 -5,6 45 24 61 33 W 0,1 0 0,0
16.12.2018 19:00:00 -6,1 -6,7 43 23 54 29 WSW 0,1 0 0,0
16.12.2018 18:00:00 -7,3 -8,0 40 22 55 30 WSW - 0 0,0
16.12.2018 17:00:00 -7,5 -8,3 42 23 51 27 SW 0,1 0 0,0
16.12.2018 16:00:00 -6,9 -7,7 36 20 50 27 SW 0,1 0 0,0
16.12.2018 15:00:00 -6,0 -6,6 27 15 39 21 SSW 0,1 0 0,1
16.12.2018 14:00:00 -6,7 -10,3 29 16 45 25 S 12 0 0,0
16.12.2018 13:00:00 -7,1 -13,0 39 21 47 26 S 46 0 0,0
16.12.2018 12:00:00 -6,6 -12,0 33 18 40 21 S 64 0 0,0
16.12.2018 11:00:00 -7,6 -13,4 34 18 39 21 S 75 0 0,0
16.12.2018 10:00:00 -5,4 -14,2 33 18 37 20 S 75 1 0,0
16.12.2018 09:00:00 -6,9 -11,9 23 13 32 17 S 75 0 0,0
16.12.2018 08:00:00 -6,8 -11,6 25 13 29 16 S 75 0 0,0
16.12.2018 07:00:00 -7,4 -11,6 20 11 22 12 S 75 0 0,0
16.12.2018 06:00:00 -5,9 -11,3 16 9 20 11 S 75 0 0,0
16.12.2018 05:00:00 -6,9 -11,5 14 8 17 9 S 75 0 0,0
16.12.2018 04:00:00 -7,0 -10,7 10 5 12 7 S 75 0 0,0
16.12.2018 03:00:00 -9,3 -11,1 10 5 16 9 SW 63 0 0,0
16.12.2018 02:00:00 -7,0 -8,8 7 4 11 6 S 75 0 0,0
16.12.2018 01:00:00 -11,1 -12,3 4 2 23 12 S 0,1 0 0,0
16.12.2018 00:00:00 -10,7 -11,7 15 8 21 11 SE 0,1 0 0,0
15.12.2018 23:00:00 -10,6 -11,6 19 10 35 19 ESE 0,1 0 0,0
15.12.2018 22:00:00 -10,4 -11,5 16 9 26 14 ESE 0,3 0 0,0
15.12.2018 21:00:00 -10,3 -11,2 15 8 23 12 ESE 0,1 0 0,0
15.12.2018 20:00:00 -10,3 -11,1 10 5 20 11 E 0,1 0 0,0
15.12.2018 19:00:00 -10,2 -11,1 8 4 21 11 ENE 0,1 0 0,0
15.12.2018 18:00:00 -10,3 -11,4 9 5 24 13 ENE 0,3 0 0,0
15.12.2018 17:00:00 -10,3 -11,4 13 7 26 14 ENE 0,3 0 0,0
15.12.2018 16:00:00 -10,3 -11,5 13 7 26 14 ENE 0,3 0 0,0
15.12.2018 15:00:00 -10,2 -11,4 11 6 17 9 ENE 0,4 0 0,1
15.12.2018 14:00:00 -10,0 -11,1 8 4 24 13 NE 0,1 0 0,0
15.12.2018 13:00:00 -10,1 -11,1 13 7 21 12 N 0,1 0 0,0
15.12.2018 12:00:00 -10,2 -11,4 12 6 23 12 NE 0,2 0 0,0
15.12.2018 11:00:00 -10,2 -11,4 13 7 28 15 NE 0,1 0 0,1
15.12.2018 10:00:00 -10,4 -11,6 17 9 28 15 NE 0,1 0 0,3
15.12.2018 09:00:00 -10,4 -11,4 13 7 29 15 NE 0,3 0 0,3
15.12.2018 08:00:00 -10,4 -11,3 14 8 29 16 NE 0,1 0 0,2
15.12.2018 07:00:00 -10,4 -11,4 19 10 30 16 NE 0,1 0 0,1
15.12.2018 06:00:00 -10,6 -11,8 19 10 29 15 NE 0,1 0 0,0
15.12.2018 05:00:00 -10,7 -11,7 16 8 26 14 NE 0,1 0 0,0
15.12.2018 04:00:00 -10,7 -11,7 16 9 28 15 NE - 0 0,0
15.12.2018 03:00:00 -10,8 -12,0 17 9 27 14 ENE 0,1 0 0,0
15.12.2018 02:00:00 -11,0 -12,0 13 7 19 10 NE 0,1 0 0,0
15.12.2018 01:00:00 -11,1 -12,3 10 6 22 12 E 0,1 0 0,0
15.12.2018 00:00:00 -11,2 -12,6 19 11 22 12 SSE 21 0 0,0
14.12.2018 23:00:00 -11,2 -12,5 16 9 22 12 ESE 7 0 0,0
14.12.2018 22:00:00 -11,1 -12,3 16 9 30 16 ESE 0,1 0 0,0
14.12.2018 21:00:00 -10,6 -11,9 21 11 29 16 ESE 1,8 0 0,0
14.12.2018 20:00:00 -10,0 -11,3 27 15 37 20 ESE 22 0 0,0
14.12.2018 19:00:00 -10,4 -11,6 22 12 28 15 ESE 0,1 0 0,0
14.12.2018 18:00:00 -10,2 -11,4 16 9 26 14 E 0,1 0 0,0
14.12.2018 17:00:00 -10,2 -11,4 15 8 22 12 E 0,1 0 0,0
14.12.2018 16:00:00 -9,8 -11,1 14 8 21 12 ENE 0,1 0 0,0
14.12.2018 15:00:00 -8,6 -9,8 13 7 20 11 ENE 0,1 0 0,0
14.12.2018 14:00:00 -8,1 -9,3 12 7 26 14 E - 0 0,0
14.12.2018 13:00:00 -8,1 -9,4 17 9 28 15 ESE 0,1 0 0,0
14.12.2018 12:00:00 -8,5 -9,8 16 9 24 13 E 0,1 0 0,0
14.12.2018 11:00:00 -8,2 -9,5 18 10 29 16 ESE 0,6 0 0,0
14.12.2018 10:00:00 -10,0 -11,2 19 11 24 13 E - 0 0,0
14.12.2018 09:00:00 -10,3 -11,3 14 8 24 13 E - 0 0,0
14.12.2018 08:00:00 -10,3 -11,3 18 10 28 15 E - 0 0,0
14.12.2018 07:00:00 -10,2 -11,2 20 11 29 16 E - 0 0,0
14.12.2018 06:00:00 -10,3 -11,4 16 9 32 17 E - 0 0,0
14.12.2018 05:00:00 -10,2 -11,3 18 10 30 16 E 0,1 0 0,0
14.12.2018 04:00:00 -9,9 -11,0 20 11 29 16 E - 0 0,0
14.12.2018 03:00:00 -9,5 -10,5 19 10 29 16 E - 0 0,0
14.12.2018 02:00:00 -9,6 -10,6 20 11 34 19 E - 0 0,0
14.12.2018 01:00:00 -9,6 -10,7 23 12 35 19 E - 0 0,0
14.12.2018 00:00:00 -9,4 -10,5 26 14 35 19 E - 0 0,0
13.12.2018 23:00:00 -9,3 -10,4 24 13 35 19 E 0,1 0 0,0
13.12.2018 22:00:00 -9,3 -10,3 21 12 33 18 E 0,1 0 0,0
13.12.2018 21:00:00 -9,4 -10,4 24 13 33 18 E - 0 0,0
13.12.2018 20:00:00 -9,5 -10,6 25 14 36 19 E 0,1 0 0,0
13.12.2018 19:00:00 -9,4 -10,5 24 13 39 21 ESE 0,1 0 0,0
13.12.2018 18:00:00 -9,4 -10,5 27 15 37 20 E 0,1 0 0,0
13.12.2018 17:00:00 -9,4 -10,5 23 12 35 19 E - 0 0,0
13.12.2018 16:00:00 -9,0 -10,0 19 10 36 19 E - 0 0,0
13.12.2018 15:00:00 -8,7 -9,9 24 13 37 20 E - 0 0,0
13.12.2018 14:00:00 -8,5 -9,5 19 11 36 19 E - 0 0,0
13.12.2018 13:00:00 -8,6 -9,8 18 10 36 20 E - 0 0,0
13.12.2018 12:00:00 -8,8 -9,9 19 11 35 19 E - 0 0,0
13.12.2018 11:00:00 -8,9 -10,0 23 12 37 20 E - 0 0,0
13.12.2018 10:00:00 -9,0 -10,1 20 11 33 18 E 0,1 0 0,0
13.12.2018 09:00:00 -9,2 -10,3 21 11 38 21 E - 0 0,0
13.12.2018 08:00:00 -9,2 -10,2 21 12 39 21 E 0,1 0 0,0
13.12.2018 07:00:00 -9,1 -10,1 22 12 41 22 E - 0 0,0
13.12.2018 06:00:00 -9,1 -10,1 19 10 36 19 E 0,1 0 0,0
13.12.2018 05:00:00 -9,1 -10,1 18 10 36 19 E - 0 0,0

tt = temperature
td = dewpoint
ff = wind speed
fx = gusts
dd = wind direction
vv = visibility
sd = sunshine duration
rr = precipitation

Next stations